createdAt,value
2019-04-23T00:02:50.838Z,52.71
2019-04-23T00:05:29.096Z,51.13
2019-04-23T00:07:56.142Z,51.05
2019-04-23T00:12:50.885Z,51.89
2019-04-23T00:17:48.837Z,53.35
2019-04-23T00:20:18.404Z,53.19
2019-04-23T00:23:06.087Z,53.00
2019-04-23T00:25:49.108Z,53.42
2019-04-23T00:30:48.169Z,53.23
2019-04-23T00:33:21.759Z,53.08
2019-04-23T00:35:43.385Z,53.58
2019-04-23T00:38:18.271Z,52.26
2019-04-23T00:40:43.931Z,54.23
2019-04-23T00:43:15.029Z,52.21
2019-04-23T00:45:44.282Z,54.67
2019-04-23T00:48:22.304Z,52.25
2019-04-23T00:50:52.842Z,52.94
2019-04-23T00:53:17.417Z,53.69
2019-04-23T00:55:47.784Z,52.29
2019-04-23T00:58:21.244Z,51.77
2019-04-23T01:00:56.137Z,53.77
2019-04-23T01:03:17.136Z,53.91
2019-04-23T01:05:48.890Z,53.40
2019-04-23T01:08:18.452Z,53.28
2019-04-23T01:10:54.741Z,52.42
2019-04-23T01:13:22.755Z,53.29
2019-04-23T01:15:53.748Z,53.16
2019-04-23T01:20:52.768Z,53.62
2019-04-23T01:23:09.539Z,54.10
2019-04-23T01:25:51.690Z,53.05
2019-04-23T01:31:08.896Z,53.41
2019-04-23T01:33:38.038Z,53.56
2019-04-23T01:36:20.600Z,52.56
2019-04-23T01:38:42.251Z,52.34
2019-04-23T01:41:09.270Z,52.09
2019-04-23T01:46:08.317Z,53.00
2019-04-23T01:48:42.096Z,52.52
2019-04-23T01:51:02.454Z,52.63
2019-04-23T01:53:43.286Z,52.01
2019-04-23T01:56:19.717Z,51.01
2019-04-23T01:58:45.507Z,52.29
2019-04-23T02:03:49.954Z,50.84
2019-04-23T02:06:14.795Z,51.21
2019-04-23T02:08:46.987Z,52.32
2019-04-23T02:11:11.568Z,52.01
2019-04-23T02:14:05.371Z,52.27
2019-04-23T02:16:19.185Z,51.06
2019-04-23T02:18:49.338Z,50.74
2019-04-23T02:21:15.265Z,51.37
2019-04-23T02:24:03.607Z,51.77
2019-04-23T02:26:36.940Z,51.53
2019-04-23T02:31:44.880Z,51.88
2019-04-23T02:34:01.175Z,51.73
2019-04-23T02:36:32.437Z,50.78
2019-04-23T02:44:16.678Z,50.68
2019-04-23T02:46:38.530Z,51.27
2019-04-23T02:49:04.920Z,51.84
2019-04-23T02:56:37.955Z,51.68
2019-04-23T03:04:10.382Z,51.16
2019-04-23T03:09:00.773Z,51.00
2019-04-23T03:14:10.993Z,52.01
2019-04-23T03:19:29.608Z,52.52
2019-04-23T03:27:25.270Z,52.35
2019-04-23T03:29:40.472Z,51.58
2019-04-23T03:42:11.996Z,52.49
2019-04-23T03:44:57.780Z,52.72
2019-04-23T03:47:13.935Z,52.53
2019-04-23T03:49:46.240Z,53.03
2019-04-23T03:52:27.904Z,52.20
2019-04-23T03:57:18.290Z,52.11
2019-04-23T03:59:52.013Z,52.27
2019-04-23T04:12:14.323Z,51.92
2019-04-23T04:14:47.409Z,51.79
2019-04-23T04:17:13.792Z,51.68
2019-04-23T04:19:49.781Z,51.57
2019-04-23T04:22:21.066Z,51.51
2019-04-23T04:24:41.083Z,51.98
2019-04-23T04:32:03.701Z,50.61
2019-04-23T04:35:09.039Z,51.91
2019-04-23T04:40:07.721Z,51.38
2019-04-23T04:42:27.559Z,50.70
2019-04-23T04:45:09.568Z,50.79
2019-04-23T04:47:21.181Z,50.34
2019-04-23T04:49:50.931Z,50.54
2019-04-23T04:52:38.363Z,50.83
2019-04-23T04:54:32.150Z,50.46
2019-04-23T04:57:20.318Z,50.37
2019-04-23T04:59:57.629Z,50.12
2019-04-23T05:02:43.264Z,50.31
2019-04-23T05:07:19.176Z,49.52
2019-04-23T05:10:07.929Z,49.80
2019-04-23T05:12:27.653Z,48.82
2019-04-23T05:14:56.918Z,49.25
2019-04-23T05:17:36.004Z,48.85
2019-04-23T05:22:22.574Z,48.78
2019-04-23T05:24:51.422Z,48.68
2019-04-23T05:27:17.588Z,48.45
2019-04-23T05:29:54.399Z,48.41
2019-04-23T05:32:20.539Z,47.97
2019-04-23T05:34:56.190Z,47.67
2019-04-23T05:37:28.304Z,47.55
2019-04-23T05:40:00.450Z,47.53
2019-04-23T05:42:26.553Z,47.07
2019-04-23T05:44:59.330Z,46.87
2019-04-23T05:47:29.276Z,47.06
2019-04-23T05:49:52.033Z,46.81
2019-04-23T05:52:24.176Z,46.30
2019-04-23T05:54:57.525Z,46.18
2019-04-23T05:57:20.550Z,46.29
2019-04-23T05:59:57.254Z,46.00
2019-04-23T06:02:27.546Z,45.87
2019-04-23T06:05:02.179Z,45.79
2019-04-23T06:07:44.192Z,46.10
2019-04-23T06:09:59.896Z,45.15
2019-04-23T06:12:25.453Z,44.88
2019-04-23T06:14:57.319Z,45.11
2019-04-23T06:17:26.360Z,44.36
2019-04-23T06:20:03.089Z,44.28
2019-04-23T06:22:34.963Z,44.37
2019-04-23T06:25:00.331Z,44.51
2019-04-23T06:27:49.380Z,43.90
2019-04-23T06:29:57.070Z,43.65
2019-04-23T06:32:32.923Z,43.86
2019-04-23T06:34:56.862Z,43.56
2019-04-23T06:39:59.793Z,42.43
2019-04-23T06:42:32.410Z,42.63
2019-04-23T06:44:59.883Z,41.69
2019-04-23T06:49:58.493Z,42.46
2019-04-23T06:52:24.846Z,41.19
2019-04-23T06:55:25.429Z,40.42
2019-04-23T06:57:39.693Z,40.72
2019-04-23T07:00:10.238Z,40.92
2019-04-23T07:02:37.553Z,40.21
2019-04-23T07:05:13.371Z,40.80
2019-04-23T07:10:07.518Z,40.28
2019-04-23T07:12:37.129Z,40.50
2019-04-23T07:15:24.968Z,40.46
2019-04-23T07:17:34.651Z,40.75
2019-04-23T07:20:07.009Z,39.95
2019-04-23T07:22:41.409Z,39.91
2019-04-23T07:25:07.804Z,39.95
2019-04-23T07:27:34.656Z,39.14
2019-04-23T07:32:36.975Z,39.36
2019-04-23T07:35:13.767Z,39.73
2019-04-23T07:37:48.606Z,40.09
2019-04-23T07:40:22.982Z,38.74
2019-04-23T07:43:03.470Z,38.76
2019-04-23T07:45:24.035Z,38.31
2019-04-23T07:50:45.947Z,38.08
2019-04-23T08:00:47.179Z,37.56
2019-04-23T08:05:39.610Z,36.43
2019-04-23T08:08:11.629Z,35.18
2019-04-23T08:11:11.011Z,35.04
2019-04-23T08:13:21.537Z,35.31
2019-04-23T08:15:46.634Z,34.97
2019-04-23T08:18:26.056Z,34.99
2019-04-23T08:20:52.334Z,35.04
2019-04-23T08:23:33.026Z,33.55
2019-04-23T08:26:02.451Z,33.63
2019-04-23T08:28:38.287Z,32.04
2019-04-23T08:30:56.809Z,33.39
2019-04-23T08:33:26.497Z,32.90
2019-04-23T08:35:59.033Z,32.09
2019-04-23T08:38:33.823Z,32.40
2019-04-23T08:41:02.565Z,32.53
2019-04-23T08:43:36.421Z,32.27
2019-04-23T08:46:11.406Z,31.92
2019-04-23T08:51:21.907Z,31.27
2019-04-23T08:56:04.487Z,30.43
2019-04-23T08:58:36.836Z,30.35
2019-04-23T09:03:34.497Z,29.97
2019-04-23T09:08:49.662Z,29.47
2019-04-23T09:11:19.570Z,29.68
2019-04-23T09:13:53.229Z,28.52
2019-04-23T09:16:08.944Z,28.49
2019-04-23T09:18:37.092Z,28.64
2019-04-23T09:21:10.526Z,28.04
2019-04-23T09:26:24.642Z,27.54
2019-04-23T09:28:45.491Z,28.44
2019-04-23T09:31:24.955Z,26.56
2019-04-23T09:33:58.643Z,26.09
2019-04-23T09:36:27.500Z,26.30
2019-04-23T09:39:10.094Z,26.76
2019-04-23T09:41:31.310Z,26.07
2019-04-23T09:46:44.008Z,24.78
2019-04-23T09:49:20.380Z,26.65
2019-04-23T09:51:51.320Z,25.88
2019-04-23T09:54:20.372Z,26.09
2019-04-23T09:56:50.891Z,25.95
2019-04-23T09:59:23.560Z,26.53
2019-04-23T10:01:39.407Z,25.70
2019-04-23T10:04:04.238Z,25.63
2019-04-23T10:06:26.521Z,25.55
2019-04-23T10:08:57.679Z,25.06
2019-04-23T10:11:24.352Z,26.21
2019-04-23T10:13:54.642Z,25.58
2019-04-23T10:16:26.317Z,24.91
2019-04-23T10:18:55.040Z,25.32
2019-04-23T10:21:23.964Z,24.61
2019-04-23T10:23:52.848Z,24.04
2019-04-23T10:26:21.852Z,24.44
2019-04-23T10:28:56.146Z,24.44
2019-04-23T10:31:25.208Z,25.46
2019-04-23T10:33:53.851Z,24.44
2019-04-23T10:36:25.911Z,24.38
2019-04-23T10:39:00.476Z,23.40
2019-04-23T10:41:24.278Z,25.00
2019-04-23T10:43:56.720Z,25.70
2019-04-23T10:46:47.127Z,25.63
2019-04-23T10:49:53.495Z,26.76
2019-04-23T10:54:42.892Z,27.24
2019-04-23T10:59:38.941Z,29.24
2019-04-23T11:02:31.638Z,29.11
2019-04-23T11:04:53.883Z,30.56
2019-04-23T11:07:26.252Z,31.46
2019-04-23T11:12:41.710Z,32.73
2019-04-23T11:15:09.292Z,30.80
2019-04-23T11:17:38.461Z,33.54
2019-04-23T11:20:07.772Z,33.49
2019-04-23T11:22:42.685Z,34.25
2019-04-23T11:25:02.236Z,34.05
2019-04-23T11:27:40.671Z,33.91
2019-04-23T11:35:11.514Z,35.33
2019-04-23T11:37:43.871Z,34.49
2019-04-23T11:40:04.052Z,34.81
2019-04-23T11:42:38.032Z,36.54
2019-04-23T11:45:09.496Z,35.54
2019-04-23T11:50:13.832Z,35.96
2019-04-23T11:52:52.064Z,35.13
2019-04-23T11:55:00.640Z,35.31
2019-04-23T12:00:05.424Z,36.22
2019-04-23T12:02:59.230Z,35.12
2019-04-23T12:05:59.069Z,35.96
2019-04-23T12:08:16.924Z,35.23
2019-04-23T12:10:47.559Z,36.11
2019-04-23T12:13:24.478Z,35.38
2019-04-23T12:15:46.407Z,36.04
2019-04-23T12:18:24.119Z,35.16
2019-04-23T12:20:39.749Z,34.55
2019-04-23T12:23:33.328Z,35.84
2019-04-23T12:26:11.497Z,34.58
2019-04-23T12:28:26.383Z,36.17
2019-04-23T12:30:50.590Z,37.03
2019-04-23T12:33:31.497Z,35.84
2019-04-23T12:35:44.117Z,37.16
2019-04-23T12:38:20.095Z,36.64
2019-04-23T12:40:52.611Z,36.80
2019-04-23T12:43:18.975Z,37.37
2019-04-23T12:48:33.737Z,37.07
2019-04-23T12:55:56.444Z,36.71
2019-04-23T13:01:03.974Z,37.74
2019-04-23T13:05:41.973Z,37.88
2019-04-23T13:08:33.982Z,37.97
2019-04-23T13:10:49.982Z,37.91
2019-04-23T13:13:31.426Z,37.82
2019-04-23T13:16:05.907Z,38.06
2019-04-23T13:18:48.187Z,38.47
2019-04-23T13:20:58.515Z,38.32
2019-04-23T13:23:32.523Z,38.58
2019-04-23T13:28:35.249Z,38.80
2019-04-23T13:31:06.458Z,38.98
2019-04-23T13:33:40.515Z,38.84
2019-04-23T13:36:13.303Z,39.42
2019-04-23T13:38:40.347Z,39.82
2019-04-23T13:43:40.470Z,39.52
2019-04-23T13:48:47.226Z,39.42
2019-04-23T13:51:19.895Z,38.42
2019-04-23T13:56:15.110Z,39.89
2019-04-23T14:06:24.496Z,40.79
2019-04-23T14:08:53.726Z,39.84
2019-04-23T14:16:21.190Z,41.47
2019-04-23T14:21:20.295Z,42.70
2019-04-23T14:26:32.494Z,43.27
2019-04-23T14:28:44.536Z,43.36
2019-04-23T14:31:11.494Z,43.50
2019-04-23T14:36:14.083Z,43.83
2019-04-23T14:38:43.800Z,44.72
2019-04-23T14:44:05.652Z,44.39
2019-04-23T14:48:51.679Z,44.54
2019-04-23T14:51:25.720Z,45.68
2019-04-23T14:56:21.615Z,44.46
2019-04-23T14:58:58.042Z,46.33
2019-04-23T15:01:35.579Z,46.39
2019-04-23T15:09:00.697Z,47.85
2019-04-23T15:11:44.242Z,47.91
2019-04-23T15:13:52.321Z,48.12
2019-04-23T15:16:28.296Z,48.23
2019-04-23T15:24:03.984Z,48.78
2019-04-23T15:28:35.911Z,47.31
2019-04-23T15:31:28.507Z,49.12
2019-04-23T15:34:02.212Z,49.31
2019-04-23T15:36:50.910Z,49.43
2019-04-23T15:39:03.755Z,48.35
2019-04-23T15:41:31.933Z,48.89
2019-04-23T15:44:05.665Z,48.74
2019-04-23T15:49:07.674Z,49.30
2019-04-23T15:54:02.801Z,49.65
2019-04-23T15:56:35.533Z,50.91
2019-04-23T16:01:34.650Z,50.56
2019-04-23T16:03:31.960Z,50.64
2019-04-23T16:06:02.519Z,51.31
2019-04-23T16:09:04.855Z,49.71
2019-04-23T16:11:41.332Z,51.12
2019-04-23T16:16:41.004Z,51.13
2019-04-23T16:19:22.064Z,50.30
2019-04-23T16:21:54.716Z,51.26
2019-04-23T16:24:18.020Z,51.25
2019-04-23T16:26:57.238Z,51.14
2019-04-23T16:29:48.866Z,50.45
2019-04-23T16:31:47.782Z,49.17
2019-04-23T16:37:02.562Z,50.38
2019-04-23T16:39:24.186Z,49.91
2019-04-23T16:42:02.005Z,50.90
2019-04-23T16:47:04.693Z,51.75
2019-04-23T16:49:38.040Z,51.62
2019-04-23T16:52:01.430Z,52.11
2019-04-23T16:54:32.616Z,52.23
2019-04-23T17:02:13.463Z,51.68
2019-04-23T17:04:33.888Z,54.11
2019-04-23T17:07:02.360Z,53.65
2019-04-23T17:14:30.626Z,54.57
2019-04-23T17:16:58.219Z,54.14
2019-04-23T17:19:55.404Z,55.23
2019-04-23T17:22:06.187Z,54.75
2019-04-23T17:24:43.641Z,52.78
2019-04-23T17:27:24.507Z,53.48
2019-04-23T17:32:05.558Z,55.86
2019-04-23T17:37:21.719Z,56.25
2019-04-23T17:40:04.574Z,57.15
2019-04-23T17:42:24.370Z,56.77
2019-04-23T17:47:34.639Z,56.11
2019-04-23T17:50:10.735Z,57.21
2019-04-23T17:52:35.600Z,55.22
2019-04-23T17:55:10.184Z,55.75
2019-04-23T17:57:36.886Z,57.68
2019-04-23T18:00:19.610Z,57.75
2019-04-23T18:10:20.001Z,55.92
2019-04-23T18:15:06.448Z,56.49
2019-04-23T18:22:47.053Z,56.88
2019-04-23T18:25:17.098Z,55.55
2019-04-23T18:27:47.067Z,56.91
2019-04-23T18:30:40.751Z,54.42
2019-04-23T18:35:36.084Z,56.31
2019-04-23T18:38:22.942Z,55.92
2019-04-23T18:41:01.353Z,55.22
2019-04-23T18:48:42.561Z,55.24
2019-04-23T18:56:06.874Z,54.46
2019-04-23T18:58:49.981Z,55.22
2019-04-23T19:01:05.622Z,54.70
2019-04-23T19:03:48.028Z,54.66
2019-04-23T19:06:22.950Z,54.37
2019-04-23T19:13:57.676Z,53.78
2019-04-23T19:16:33.876Z,53.19
2019-04-23T19:19:04.871Z,52.91
2019-04-23T19:21:59.404Z,52.56
2019-04-23T19:23:57.529Z,52.09
2019-04-23T19:26:57.079Z,51.59
2019-04-23T19:29:02.843Z,51.49
2019-04-23T19:31:49.137Z,50.51
2019-04-23T19:34:30.103Z,50.14
2019-04-23T19:36:54.816Z,49.70
2019-04-23T19:39:26.338Z,49.42
2019-04-23T19:44:16.251Z,49.06
2019-04-23T19:49:18.522Z,48.93
2019-04-23T19:51:48.148Z,48.83
2019-04-23T19:59:23.297Z,48.32
2019-04-23T20:01:47.224Z,48.25
2019-04-23T20:04:18.248Z,48.01
2019-04-23T20:07:07.274Z,48.09
2019-04-23T20:09:30.737Z,47.81
2019-04-23T20:12:01.008Z,47.88
2019-04-23T20:14:21.466Z,47.67
2019-04-23T20:17:02.590Z,47.93
2019-04-23T20:19:28.010Z,47.91
2019-04-23T20:22:07.429Z,47.82
2019-04-23T20:27:01.611Z,47.95
2019-04-23T20:29:51.820Z,48.06
2019-04-23T20:34:59.078Z,47.94
2019-04-23T20:37:06.551Z,48.29
2019-04-23T20:39:49.068Z,47.75
2019-04-23T20:44:57.114Z,47.77
2019-04-23T20:49:47.145Z,48.66
2019-04-23T20:52:10.347Z,48.56
2019-04-23T21:03:18.411Z,48.76
2019-04-23T21:05:21.540Z,49.25
2019-04-23T21:07:57.947Z,49.29
2019-04-23T21:10:33.768Z,49.62
2019-04-23T21:13:09.281Z,50.30
2019-04-23T21:15:29.077Z,50.09
2019-04-23T21:18:13.657Z,50.69
2019-04-23T21:20:34.377Z,50.67
2019-04-23T21:23:06.627Z,50.84
2019-04-23T21:25:33.968Z,50.93
2019-04-23T21:33:16.112Z,51.00
2019-04-23T21:41:41.821Z,50.66
2019-04-23T21:44:08.286Z,51.32
2019-04-23T21:46:38.236Z,51.27
2019-04-23T21:53:55.643Z,51.47
2019-04-23T21:56:31.252Z,52.13
2019-04-23T21:59:06.890Z,50.92
2019-04-23T22:01:37.160Z,52.21
2019-04-23T22:06:41.361Z,52.57
2019-04-23T22:09:10.961Z,53.92
2019-04-23T22:16:40.964Z,54.54
2019-04-23T22:19:13.915Z,55.10
2019-04-23T22:21:43.035Z,54.18
2019-04-23T22:31:44.315Z,56.21
2019-04-23T22:34:08.716Z,57.18
2019-04-23T22:37:01.455Z,56.66
2019-04-23T22:39:07.739Z,56.92
2019-04-23T22:41:43.773Z,56.95
2019-04-23T22:44:14.414Z,56.56
2019-04-23T22:46:48.389Z,57.48
2019-04-23T22:51:52.689Z,57.84
2019-04-23T22:54:11.792Z,57.99
2019-04-23T22:56:45.132Z,57.12
2019-04-23T22:59:16.927Z,57.59
2019-04-23T23:01:50.425Z,57.42
2019-04-23T23:04:28.673Z,56.88
2019-04-23T23:11:49.648Z,58.13
2019-04-23T23:16:45.299Z,58.85
2019-04-23T23:21:59.655Z,57.86
2019-04-23T23:24:15.301Z,59.51
2019-04-23T23:26:49.472Z,57.75
2019-04-23T23:29:15.408Z,58.80
2019-04-23T23:31:52.070Z,59.43
2019-04-23T23:34:15.999Z,59.59
2019-04-23T23:41:48.856Z,60.48
2019-04-23T23:44:34.663Z,60.27
2019-04-23T23:46:56.267Z,60.46
2019-04-23T23:49:22.173Z,60.39
2019-04-23T23:56:58.208Z,60.70
2019-04-23T23:59:21.695Z,59.33
